Time;durP1;ratioP1;P1;durP2;ratioP2;P2;SDS_P1;SDS_P2;PMS_P1;PMS_P2;Temp;Humidity;BMP_temperature;BMP_pressure;BME280_temperature;BME280_humidity;BME280_pressure;Samples;Min_cycle;Max_cycle;Signal;HPM_P1;HPM_P2
2023/03/19 00:01:07;;;;;;;3.27;1.53;;;10.30;99.90;;;;;;5074864;28;20207;-50
2023/03/19 00:03:33;;;;;;;2.80;1.10;;;10.30;99.90;;;;;;5074892;28;20167;-49
2023/03/19 00:05:59;;;;;;;2.23;1.33;;;10.20;99.90;;;;;;5074832;28;20643;-50
2023/03/19 00:08:25;;;;;;;1.97;1.37;;;10.20;99.90;;;;;;5074782;28;20175;-49
2023/03/19 00:10:50;;;;;;;1.63;1.17;;;10.20;99.90;;;;;;5074704;28;20651;-49
2023/03/19 00:13:16;;;;;;;2.57;1.30;;;10.20;99.90;;;;;;5074685;28;20172;-51
2023/03/19 00:15:42;;;;;;;1.73;1.17;;;10.20;99.90;;;;;;5074889;28;20195;-49
2023/03/19 00:18:07;;;;;;;1.57;1.20;;;10.20;99.90;;;;;;5074905;28;20175;-49
2023/03/19 00:20:33;;;;;;;2.00;1.20;;;10.10;99.90;;;;;;5075475;28;20207;-48
2023/03/19 00:22:59;;;;;;;1.10;1.00;;;10.10;99.90;;;;;;5075513;28;20538;-50
2023/03/19 00:25:25;;;;;;;1.97;1.37;;;10.00;99.90;;;;;;5074684;28;20258;-50
2023/03/19 00:27:51;;;;;;;4.20;1.40;;;10.00;99.90;;;;;;5074640;28;20540;-51
2023/03/19 00:30:17;;;;;;;5.13;1.13;;;9.90;99.90;;;;;;5074502;28;20187;-52
2023/03/19 00:32:43;;;;;;;1.83;1.43;;;9.90;99.90;;;;;;5074448;28;20179;-49
2023/03/19 00:35:09;;;;;;;1.70;1.20;;;9.80;99.90;;;;;;5074220;28;20184;-51
2023/03/19 00:37:36;;;;;;;1.73;1.10;;;9.80;99.90;;;;;;5074166;28;20176;-49
2023/03/19 00:40:03;;;;;;;1.70;1.20;;;9.60;99.90;;;;;;5074058;28;20561;-51
2023/03/19 00:42:29;;;;;;;0.90;0.80;;;9.60;99.90;;;;;;5073987;28;20183;-51
2023/03/19 00:44:55;;;;;;;1.83;0.87;;;9.50;99.90;;;;;;5074313;28;20233;-51
2023/03/19 00:47:21;;;;;;;2.00;1.13;;;9.40;99.90;;;;;;5074259;28;20248;-51
2023/03/19 00:49:47;;;;;;;3.90;1.10;;;9.40;99.90;;;;;;5073968;28;20195;-52
2023/03/19 00:52:12;;;;;;;1.97;0.80;;;9.30;99.90;;;;;;5073243;28;20194;-52
2023/03/19 00:54:38;;;;;;;1.40;1.00;;;9.40;99.90;;;;;;5074127;28;20187;-51
2023/03/19 00:57:04;;;;;;;1.53;1.03;;;9.30;99.90;;;;;;5074204;28;20635;-50
2023/03/19 00:59:30;;;;;;;2.73;1.20;;;9.40;99.90;;;;;;5074141;28;20203;-52
2023/03/19 01:01:55;;;;;;;1.63;1.30;;;9.30;99.90;;;;;;5073771;28;20221;-49
2023/03/19 01:04:22;;;;;;;2.60;1.40;;;9.30;99.90;;;;;;5074308;28;20199;-50
2023/03/19 01:06:47;;;;;;;2.07;1.60;;;9.30;99.90;;;;;;5073786;28;20175;-50
2023/03/19 01:09:13;;;;;;;1.77;1.50;;;9.30;99.90;;;;;;5073767;28;20187;-50
2023/03/19 01:11:39;;;;;;;1.97;1.60;;;9.40;99.90;;;;;;5073706;28;20226;-49
2023/03/19 01:14:05;;;;;;;3.17;1.90;;;9.40;99.90;;;;;;5074023;28;20572;-52
2023/03/19 01:16:30;;;;;;;2.93;2.23;;;9.40;99.90;;;;;;5073855;28;20214;-49
2023/03/19 01:18:57;;;;;;;4.43;2.00;;;9.40;99.90;;;;;;5073478;28;20590;-52
2023/03/19 01:21:23;;;;;;;4.27;1.90;;;9.30;99.90;;;;;;5074102;28;20265;-50
2023/03/19 01:23:50;;;;;;;3.00;1.80;;;9.40;99.90;;;;;;5074347;28;20172;-49
2023/03/19 01:26:17;;;;;;;4.70;2.10;;;9.40;99.90;;;;;;5073703;28;20180;-48
2023/03/19 01:28:43;;;;;;;4.33;2.00;;;9.40;99.90;;;;;;5072218;28;20179;-49
2023/03/19 01:31:09;;;;;;;3.30;2.23;;;9.40;99.90;;;;;;5073485;28;20203;-48
2023/03/19 01:33:36;;;;;;;5.07;2.20;;;9.40;99.90;;;;;;5073659;28;20658;-49
2023/03/19 01:36:06;;;;;;;5.83;2.27;;;9.40;99.90;;;;;;5079000;28;20183;-48
2023/03/19 01:38:32;;;;;;;2.80;2.00;;;9.40;99.90;;;;;;5081784;28;20612;-49
2023/03/19 01:40:57;;;;;;;3.57;1.93;;;9.40;99.90;;;;;;5073256;28;20211;-48
2023/03/19 01:43:28;;;;;;;3.73;2.17;;;9.40;99.90;;;;;;5073295;28;20649;-51
2023/03/19 01:46:03;;;;;;;4.47;2.27;;;9.40;99.90;;;;;;5073581;28;20166;-49
2023/03/19 01:48:41;;;;;;;4.57;2.33;;;9.40;99.90;;;;;;5073591;28;20246;-51
2023/03/19 01:51:10;;;;;;;3.10;2.47;;;9.40;99.90;;;;;;5073171;28;20210;-51
2023/03/19 01:53:39;;;;;;;4.47;2.30;;;9.40;99.90;;;;;;5073202;28;20182;-51
2023/03/19 01:56:18;;;;;;;3.83;2.50;;;9.40;99.90;;;;;;5073140;28;20178;-49
2023/03/19 01:58:47;;;;;;;2.73;2.00;;;9.40;99.90;;;;;;5073328;28;20183;-49
2023/03/19 02:01:13;;;;;;;3.67;1.97;;;9.40;99.90;;;;;;5073375;28;20211;-49
2023/03/19 02:03:39;;;;;;;2.60;1.87;;;9.40;99.90;;;;;;5076927;28;20186;-49
2023/03/19 02:06:05;;;;;;;3.20;2.23;;;9.40;99.90;;;;;;5077427;28;20171;-44
2023/03/19 02:08:32;;;;;;;3.33;1.97;;;9.40;99.90;;;;;;5077356;28;20305;-45
2023/03/19 02:10:59;;;;;;;3.07;2.13;;;9.40;99.90;;;;;;5076987;28;20196;-44
2023/03/19 02:13:26;;;;;;;5.97;2.70;;;9.40;99.90;;;;;;5076998;28;20167;-47
2023/03/19 02:15:53;;;;;;;3.93;2.60;;;9.40;99.90;;;;;;5077604;28;20179;-46
2023/03/19 02:18:19;;;;;;;4.27;2.60;;;9.40;99.90;;;;;;5076920;28;20282;-45
2023/03/19 02:21:21;;;;;;;3.93;2.80;;;9.40;99.90;;;;;;5076714;28;20738;-42
2023/03/19 02:24:13;;;;;;;3.77;2.33;;;9.40;99.90;;;;;;5035984;28;20596;-44
2023/03/19 02:26:40;;;;;;;5.30;2.33;;;9.40;99.90;;;;;;5076053;28;20202;-46
2023/03/19 02:29:06;;;;;;;3.80;2.57;;;9.40;99.90;;;;;;5075421;28;20278;-48
2023/03/19 02:31:32;;;;;;;4.50;2.23;;;9.40;99.90;;;;;;5076839;28;20287;-46
2023/03/19 02:34:27;;;;;;;3.10;2.17;;;9.40;99.90;;;;;;5076573;28;20179;-48
2023/03/19 02:37:17;;;;;;;2.97;2.30;;;9.40;99.90;;;;;;5076510;28;20310;-45
2023/03/19 02:39:58;;;;;;;8.70;2.30;;;9.40;99.90;;;;;;5076716;28;20217;-45
2023/03/19 02:42:27;;;;;;;2.20;2.00;;;9.50;99.90;;;;;;5076932;28;20182;-47
2023/03/19 02:44:53;;;;;;;5.90;2.00;;;9.50;99.90;;;;;;5076687;28;20183;-47
2023/03/19 02:47:19;;;;;;;3.50;2.90;;;9.60;99.90;;;;;;5076366;28;20186;-45
2023/03/19 02:49:44;;;;;;;6.03;2.10;;;9.60;99.90;;;;;;5076253;28;20314;-45
2023/03/19 02:52:11;;;;;;;4.47;1.93;;;9.60;99.90;;;;;;5076132;28;20662;-47
2023/03/19 02:54:36;;;;;;;4.93;2.10;;;9.70;99.90;;;;;;5076444;28;20191;-45
2023/03/19 02:57:02;;;;;;;4.10;2.30;;;9.60;99.90;;;;;;5076203;28;20650;-46
2023/03/19 02:59:28;;;;;;;3.57;1.90;;;9.70;99.90;;;;;;5076336;28;20325;-47
2023/03/19 03:01:54;;;;;;;3.97;2.27;;;9.60;99.90;;;;;;5076263;28;20701;-47
2023/03/19 03:04:19;;;;;;;3.87;2.00;;;9.60;99.90;;;;;;5076303;28;20266;-46
2023/03/19 03:06:45;;;;;;;3.23;2.20;;;9.60;99.90;;;;;;5076109;28;20176;-47
2023/03/19 03:09:11;;;;;;;4.97;2.13;;;9.50;99.90;;;;;;5076045;28;20649;-44
2023/03/19 03:11:39;;;;;;;3.50;2.37;;;9.50;99.90;;;;;;5076105;28;20200;-46
2023/03/19 03:14:05;;;;;;;3.60;1.97;;;9.40;99.90;;;;;;5075462;28;20551;-45
2023/03/19 03:16:31;;;;;;;2.87;1.90;;;9.30;99.90;;;;;;5076135;28;20189;-44
2023/03/19 03:18:57;;;;;;;3.27;1.90;;;9.20;99.90;;;;;;5075700;28;20195;-48
2023/03/19 03:21:24;;;;;;;4.20;2.10;;;9.20;99.90;;;;;;5077174;28;20213;-47
2023/03/19 03:23:50;;;;;;;3.07;2.10;;;9.20;99.90;;;;;;5076217;28;20194;-47
2023/03/19 03:26:16;;;;;;;4.60;2.30;;;9.20;99.90;;;;;;5076513;28;20183;-49
2023/03/19 03:28:42;;;;;;;3.47;2.03;;;9.20;99.90;;;;;;5076096;28;20699;-51
2023/03/19 03:31:08;;;;;;;3.93;2.10;;;9.20;99.90;;;;;;5075416;28;20211;-50
2023/03/19 03:33:35;;;;;;;5.10;2.40;;;9.20;99.90;;;;;;5075530;28;20547;-51
2023/03/19 03:36:00;;;;;;;3.37;2.27;;;9.20;99.90;;;;;;5075420;28;20649;-50
2023/03/19 03:38:26;;;;;;;3.00;2.03;;;9.20;99.90;;;;;;5076039;28;20174;-49
2023/03/19 03:40:52;;;;;;;4.23;2.07;;;9.20;99.90;;;;;;5075315;28;20214;-51
2023/03/19 03:43:19;;;;;;;3.10;2.10;;;9.20;99.90;;;;;;5075761;28;20278;-51
2023/03/19 03:45:46;;;;;;;4.50;2.27;;;9.20;99.90;;;;;;5075276;28;20175;-49
2023/03/19 03:48:13;;;;;;;4.37;1.83;;;9.20;99.90;;;;;;5076347;28;20520;-49
2023/03/19 03:50:39;;;;;;;3.20;2.10;;;9.20;99.90;;;;;;5075063;28;20236;-48
2023/03/19 03:53:05;;;;;;;4.93;1.90;;;9.20;99.90;;;;;;5075161;28;20182;-50
2023/03/19 03:55:31;;;;;;;6.27;2.07;;;9.20;99.90;;;;;;5075180;28;20179;-50
2023/03/19 03:57:57;;;;;;;5.20;2.27;;;9.20;99.90;;;;;;5075268;28;20282;-50
2023/03/19 04:00:24;;;;;;;2.40;2.03;;;9.20;99.90;;;;;;5074798;28;20292;-50
2023/03/19 04:02:50;;;;;;;2.90;2.20;;;9.20;99.90;;;;;;5075423;28;20193;-51
2023/03/19 04:05:16;;;;;;;3.77;2.10;;;9.20;99.90;;;;;;5075293;28;20182;-50
2023/03/19 04:07:42;;;;;;;3.30;2.20;;;9.10;99.90;;;;;;5075112;28;20210;-52
2023/03/19 04:10:09;;;;;;;2.37;2.03;;;9.20;99.90;;;;;;5074689;28;20242;-51
2023/03/19 04:12:36;;;;;;;2.60;1.93;;;9.20;99.90;;;;;;5074966;28;20273;-50
2023/03/19 04:15:03;;;;;;;3.20;2.10;;;9.20;99.90;;;;;;5074963;28;20242;-52
2023/03/19 04:17:28;;;;;;;5.30;2.10;;;9.20;99.90;;;;;;5074861;28;20186;-49
2023/03/19 04:19:54;;;;;;;3.23;2.10;;;9.20;99.90;;;;;;5074697;28;20687;-51
2023/03/19 04:22:20;;;;;;;2.50;2.00;;;9.20;99.90;;;;;;5076111;28;20206;-47
2023/03/19 04:24:45;;;;;;;4.43;2.63;;;9.20;99.90;;;;;;5074674;28;20581;-46
2023/03/19 04:27:11;;;;;;;3.97;2.00;;;9.20;99.90;;;;;;5073568;28;20178;-47
2023/03/19 04:29:36;;;;;;;2.63;1.93;;;9.20;99.90;;;;;;5074533;28;20266;-48
2023/03/19 04:32:02;;;;;;;2.87;2.00;;;9.20;99.90;;;;;;5074476;28;20240;-47
2023/03/19 04:34:27;;;;;;;2.83;2.20;;;9.20;99.90;;;;;;5074843;28;20185;-47
2023/03/19 04:36:53;;;;;;;5.47;1.90;;;9.10;99.90;;;;;;5074479;28;20190;-48
2023/03/19 04:39:19;;;;;;;2.97;2.00;;;9.10;99.90;;;;;;5074183;28;20295;-48
2023/03/19 04:41:44;;;;;;;2.27;2.07;;;9.10;99.90;;;;;;5074235;28;20198;-46
2023/03/19 04:44:10;;;;;;;3.03;2.10;;;9.10;99.90;;;;;;5074427;28;20194;-48
2023/03/19 04:46:36;;;;;;;2.97;2.10;;;9.10;99.90;;;;;;5074075;28;20760;-49
2023/03/19 04:49:01;;;;;;;3.53;2.10;;;9.10;99.90;;;;;;5073862;28;20179;-48
2023/03/19 04:51:27;;;;;;;3.53;2.07;;;9.10;99.90;;;;;;5074538;28;20195;-48
2023/03/19 04:53:53;;;;;;;3.43;2.30;;;9.10;99.90;;;;;;5075489;28;20585;-48
2023/03/19 04:56:19;;;;;;;3.07;2.23;;;9.20;99.90;;;;;;5075438;28;20190;-46
2023/03/19 04:58:44;;;;;;;4.87;2.57;;;9.20;99.90;;;;;;5075553;28;20240;-48
2023/03/19 05:01:10;;;;;;;2.83;2.37;;;9.20;99.90;;;;;;5076820;28;20219;-47
2023/03/19 05:03:36;;;;;;;5.03;2.70;;;9.20;99.90;;;;;;5076012;28;20174;-48
2023/03/19 05:06:02;;;;;;;2.60;2.10;;;9.30;99.90;;;;;;5074930;28;20583;-46
2023/03/19 05:08:27;;;;;;;3.73;2.77;;;9.30;99.90;;;;;;5073817;28;20179;-48
2023/03/19 05:10:53;;;;;;;2.87;2.37;;;9.30;99.90;;;;;;5073571;28;20254;-48
2023/03/19 05:13:19;;;;;;;4.93;2.77;;;9.40;99.90;;;;;;5073966;28;20194;-49
2023/03/19 05:15:45;;;;;;;6.03;2.90;;;9.40;99.90;;;;;;5073833;28;20647;-48
2023/03/19 05:18:11;;;;;;;2.90;2.60;;;9.40;99.90;;;;;;5073986;28;20249;-48
2023/03/19 05:20:38;;;;;;;4.10;2.90;;;9.50;99.90;;;;;;5073414;28;20613;-50
2023/03/19 05:23:05;;;;;;;6.43;3.17;;;9.50;99.90;;;;;;5074788;28;20205;-47
2023/03/19 05:25:34;;;;;;;3.47;2.63;;;9.50;99.90;;;;;;5073523;28;20202;-48
2023/03/19 05:27:59;;;;;;;4.10;3.07;;;9.50;99.90;;;;;;5073692;28;20206;-48
2023/03/19 05:30:26;;;;;;;3.47;2.70;;;9.50;99.90;;;;;;5073376;28;20638;-50
2023/03/19 05:32:52;;;;;;;5.47;2.80;;;9.50;99.90;;;;;;5073705;28;20194;-47
2023/03/19 05:35:18;;;;;;;4.90;2.87;;;9.40;99.90;;;;;;5073372;28;20190;-49
2023/03/19 05:37:43;;;;;;;2.37;2.17;;;9.50;99.90;;;;;;5073036;28;20189;-49
2023/03/19 05:40:11;;;;;;;3.73;2.60;;;9.40;99.90;;;;;;5073479;28;20293;-47
2023/03/19 05:42:37;;;;;;;4.00;2.20;;;9.40;99.90;;;;;;5073562;28;20184;-50
2023/03/19 05:45:04;;;;;;;2.63;2.43;;;9.40;99.90;;;;;;5073287;28;20174;-49
2023/03/19 05:47:30;;;;;;;5.90;3.27;;;9.40;99.90;;;;;;5073388;28;20171;-48
2023/03/19 05:52:28;;;;;;;3.23;2.93;;;9.40;99.90;;;;;;5050650;28;20214;-51
2023/03/19 05:54:54;;;;;;;4.03;2.90;;;9.40;99.90;;;;;;5053128;28;20194;-49
2023/03/19 05:57:20;;;;;;;3.43;3.13;;;9.40;99.90;;;;;;5053220;28;20182;-50
2023/03/19 05:59:45;;;;;;;5.13;3.53;;;9.40;99.90;;;;;;5053244;28;20293;-50
2023/03/19 06:02:11;;;;;;;4.50;3.37;;;9.40;99.90;;;;;;5053039;28;20229;-51
2023/03/19 06:04:37;;;;;;;4.60;3.00;;;9.50;99.90;;;;;;5053061;28;20714;-51
2023/03/19 06:07:03;;;;;;;3.90;3.47;;;9.40;99.90;;;;;;5053045;28;20261;-50
2023/03/19 06:09:28;;;;;;;4.20;3.07;;;9.50;99.90;;;;;;5053081;28;20201;-51
2023/03/19 06:11:54;;;;;;;5.87;3.63;;;9.50;99.90;;;;;;5052865;28;20207;-50
2023/03/19 06:14:20;;;;;;;4.30;3.30;;;9.50;99.90;;;;;;5052944;28;20187;-50
2023/03/19 06:16:45;;;;;;;3.80;3.40;;;9.60;99.90;;;;;;5052928;28;20745;-51
2023/03/19 06:19:11;;;;;;;3.87;3.07;;;9.60;99.90;;;;;;5052869;28;20717;-51
2023/03/19 06:21:36;;;;;;;3.07;2.77;;;9.60;99.90;;;;;;5052765;28;20211;-50
2023/03/19 06:24:02;;;;;;;7.17;3.67;;;9.60;99.90;;;;;;5053103;28;20190;-49
2023/03/19 06:26:28;;;;;;;4.67;3.77;;;9.70;99.90;;;;;;5052886;28;20183;-52
2023/03/19 06:28:53;;;;;;;4.67;3.53;;;9.70;99.90;;;;;;5053055;28;20199;-52
2023/03/19 06:31:19;;;;;;;4.57;3.90;;;9.70;99.90;;;;;;5052734;28;20200;-50
2023/03/19 06:33:44;;;;;;;4.50;3.80;;;9.80;99.90;;;;;;5053019;28;20187;-50
2023/03/19 06:36:10;;;;;;;5.20;3.93;;;9.80;99.90;;;;;;5052754;28;20174;-51
2023/03/19 06:38:36;;;;;;;8.47;4.43;;;9.80;99.90;;;;;;5052740;28;20689;-51
2023/03/19 06:41:02;;;;;;;7.90;4.93;;;9.80;99.90;;;;;;5052819;28;20246;-51
2023/03/19 06:43:28;;;;;;;5.20;4.50;;;9.90;99.90;;;;;;5052939;28;20209;-51
2023/03/19 06:45:54;;;;;;;6.23;4.53;;;9.90;99.90;;;;;;5052612;28;20604;-53
2023/03/19 06:48:19;;;;;;;6.23;4.10;;;9.90;99.90;;;;;;5053216;28;20253;-51
2023/03/19 06:50:46;;;;;;;6.20;4.53;;;10.00;99.90;;;;;;5056272;28;20306;-53
2023/03/19 06:53:12;;;;;;;7.63;4.80;;;10.00;99.90;;;;;;5056244;28;20257;-52
2023/03/19 06:55:38;;;;;;;7.27;4.50;;;10.10;99.90;;;;;;5056771;28;20630;-52
2023/03/19 06:58:04;;;;;;;5.27;4.53;;;10.10;99.90;;;;;;5056164;28;20183;-50
2023/03/19 07:00:30;;;;;;;4.43;3.77;;;10.20;99.90;;;;;;5055954;28;20202;-52
2023/03/19 07:02:55;;;;;;;5.23;4.37;;;10.30;99.90;;;;;;5056249;28;20182;-50
2023/03/19 07:05:21;;;;;;;6.33;4.13;;;10.30;99.90;;;;;;5056002;28;20183;-51
2023/03/19 07:07:47;;;;;;;4.70;4.30;;;10.40;99.90;;;;;;5056248;28;20541;-50
2023/03/19 07:10:12;;;;;;;5.40;3.97;;;10.40;99.90;;;;;;5055772;28;20183;-51
2023/03/19 07:12:38;;;;;;;4.33;3.93;;;10.50;99.90;;;;;;5056084;28;20191;-51
2023/03/19 07:15:04;;;;;;;5.30;4.17;;;10.60;99.90;;;;;;5055802;28;20187;-50
2023/03/19 07:17:30;;;;;;;4.83;4.20;;;10.70;99.90;;;;;;5056131;28;20269;-51
2023/03/19 07:19:55;;;;;;;5.93;4.47;;;10.80;99.90;;;;;;5055661;28;20656;-52
2023/03/19 07:22:21;;;;;;;5.50;4.20;;;10.80;99.90;;;;;;5055598;28;20694;-52
2023/03/19 07:24:47;;;;;;;4.77;4.27;;;10.90;99.90;;;;;;5056182;28;20178;-51
2023/03/19 07:27:12;;;;;;;4.90;4.40;;;10.90;99.90;;;;;;5055764;28;20182;-51
2023/03/19 07:29:38;;;;;;;4.90;4.30;;;11.00;99.90;;;;;;5056036;28;20701;-50
2023/03/19 07:32:04;;;;;;;5.27;4.77;;;11.10;99.90;;;;;;5055461;28;20203;-50
2023/03/19 07:34:30;;;;;;;6.20;4.27;;;11.30;99.90;;;;;;5055479;28;20251;-51
2023/03/19 07:36:56;;;;;;;6.90;4.83;;;11.50;99.90;;;;;;5055679;28;20229;-51
2023/03/19 07:39:21;;;;;;;4.40;4.00;;;11.60;99.90;;;;;;5055542;28;20636;-51
2023/03/19 07:41:48;;;;;;;5.10;3.83;;;11.80;99.90;;;;;;5055237;28;20219;-51
2023/03/19 07:44:14;;;;;;;5.73;4.07;;;11.80;99.90;;;;;;5055625;28;20569;-50
2023/03/19 07:46:40;;;;;;;4.87;4.37;;;11.80;99.90;;;;;;5055273;28;20172;-51
2023/03/19 07:49:06;;;;;;;4.57;4.17;;;11.90;99.90;;;;;;5055462;28;20183;-50
2023/03/19 07:51:32;;;;;;;6.87;4.40;;;12.00;99.90;;;;;;5054899;28;20223;-51
2023/03/19 07:53:58;;;;;;;5.53;4.10;;;12.00;99.90;;;;;;5055080;28;20183;-51
2023/03/19 07:56:23;;;;;;;4.53;4.07;;;12.00;99.90;;;;;;5055056;28;20246;-50
2023/03/19 07:58:49;;;;;;;4.37;3.90;;;12.10;99.90;;;;;;5055219;28;20187;-50
2023/03/19 08:01:15;;;;;;;4.83;4.00;;;12.10;99.90;;;;;;5054753;28;20691;-50
2023/03/19 08:03:40;;;;;;;6.30;3.70;;;12.20;99.90;;;;;;5055152;28;20200;-52
2023/03/19 08:06:06;;;;;;;5.07;4.13;;;12.20;99.90;;;;;;5055156;28;20183;-52
2023/03/19 08:08:33;;;;;;;4.93;3.47;;;12.30;99.90;;;;;;5054818;28;20663;-51
2023/03/19 08:10:59;;;;;;;4.47;3.33;;;12.30;99.90;;;;;;5055776;28;20594;-52
2023/03/19 08:13:25;;;;;;;4.37;3.40;;;12.40;99.90;;;;;;5054996;28;20194;-51
2023/03/19 08:15:52;;;;;;;4.87;3.60;;;12.50;99.90;;;;;;5054672;28;20217;-51
2023/03/19 08:18:18;;;;;;;5.90;3.60;;;12.60;99.90;;;;;;5054915;28;20181;-51
2023/03/19 08:20:47;;;;;;;4.00;3.60;;;12.80;99.90;;;;;;5054496;28;20691;-51
2023/03/19 08:23:13;;;;;;;4.17;3.63;;;13.10;99.90;;;;;;5054698;28;20176;-51
2023/03/19 08:25:39;;;;;;;4.17;3.27;;;13.20;99.90;;;;;;5054562;28;20663;-51
2023/03/19 08:28:05;;;;;;;5.20;3.30;;;13.40;99.90;;;;;;5054724;28;20176;-51
2023/03/19 08:30:31;;;;;;;4.07;3.07;;;13.50;99.90;;;;;;5054410;28;20311;-50
2023/03/19 08:32:56;;;;;;;4.87;3.33;;;13.70;99.90;;;;;;5054836;28;20180;-51
2023/03/19 08:35:22;;;;;;;4.30;2.97;;;13.80;99.90;;;;;;5054546;28;20233;-52
2023/03/19 08:37:48;;;;;;;3.80;3.40;;;13.90;99.90;;;;;;5054307;28;20659;-50
2023/03/19 08:40:14;;;;;;;8.10;3.20;;;14.00;99.90;;;;;;5053959;28;20208;-52
2023/03/19 08:42:41;;;;;;;3.03;2.73;;;14.10;99.90;;;;;;5054135;28;20267;-51
2023/03/19 08:45:08;;;;;;;3.03;2.60;;;14.20;99.90;;;;;;5054056;28;20176;-50
2023/03/19 08:47:34;;;;;;;5.40;3.20;;;14.20;99.90;;;;;;5054289;28;20176;-51
2023/03/19 08:50:00;;;;;;;3.40;2.83;;;14.30;99.90;;;;;;5053943;28;20654;-51
2023/03/19 08:52:25;;;;;;;3.23;2.83;;;14.40;99.90;;;;;;5053960;28;20698;-50
2023/03/19 08:54:51;;;;;;;3.57;2.93;;;14.60;99.90;;;;;;5053920;28;20176;-50
2023/03/19 08:57:17;;;;;;;3.27;2.80;;;14.50;99.90;;;;;;5054103;28;20254;-50
2023/03/19 08:59:42;;;;;;;2.90;2.63;;;14.50;99.90;;;;;;5054078;28;20196;-53
2023/03/19 09:02:11;;;;;;;4.47;3.10;;;14.50;99.90;;;;;;5053728;28;20196;-51
2023/03/19 09:04:40;;;;;;;4.60;3.40;;;14.50;99.90;;;;;;5053727;28;20200;-50
2023/03/19 09:07:06;;;;;;;3.40;3.07;;;14.60;99.90;;;;;;5053741;28;20173;-51
2023/03/19 09:09:31;;;;;;;5.67;3.40;;;14.60;99.90;;;;;;5054735;28;20207;-51
2023/03/19 09:11:57;;;;;;;2.83;2.60;;;14.60;99.90;;;;;;5053267;28;20204;-50
2023/03/19 09:14:22;;;;;;;2.90;2.70;;;14.40;99.90;;;;;;5053576;28;20533;-51
2023/03/19 09:16:48;;;;;;;3.30;3.00;;;14.40;99.90;;;;;;5053601;28;20180;-50
2023/03/19 09:19:14;;;;;;;3.73;2.97;;;14.30;99.90;;;;;;5053467;28;20176;-50
2023/03/19 09:21:40;;;;;;;4.23;3.13;;;14.30;99.90;;;;;;5053689;28;20203;-50
2023/03/19 09:24:06;;;;;;;3.80;2.90;;;14.20;99.90;;;;;;5053446;28;20263;-51
2023/03/19 09:26:32;;;;;;;3.20;2.90;;;14.30;99.90;;;;;;5053968;28;20181;-52
2023/03/19 09:28:58;;;;;;;4.30;3.50;;;14.20;99.90;;;;;;5053540;28;20231;-52
2023/03/19 09:31:23;;;;;;;3.37;2.90;;;14.20;99.90;;;;;;5053371;28;20196;-51
2023/03/19 09:33:49;;;;;;;3.27;2.97;;;14.30;99.90;;;;;;5053374;28;20244;-51
2023/03/19 09:36:15;;;;;;;4.33;3.10;;;14.30;99.90;;;;;;5053619;28;20233;-52
2023/03/19 09:38:41;;;;;;;3.53;2.80;;;14.30;99.90;;;;;;5053598;28;20549;-52
2023/03/19 09:41:19;;;;;;;4.50;3.03;;;14.40;99.90;;;;;;5053412;28;20338;-52
2023/03/19 09:44:01;;;;;;;4.57;3.60;;;14.30;99.90;;;;;;5053271;28;20526;-51
2023/03/19 09:46:55;;;;;;;3.30;3.00;;;14.40;99.90;;;;;;5053501;28;20655;-53
2023/03/19 09:49:26;;;;;;;4.47;3.20;;;14.50;99.90;;;;;;5053581;28;20168;-51
2023/03/19 09:52:23;;;;;;;3.53;3.10;;;14.60;99.90;;;;;;5051733;28;20215;-52
2023/03/19 09:54:51;;;;;;;3.37;3.07;;;14.70;99.90;;;;;;5028602;28;20712;-50
2023/03/19 09:57:18;;;;;;;4.20;3.00;;;14.70;99.90;;;;;;5053143;28;20179;-51
2023/03/19 09:59:44;;;;;;;4.20;3.07;;;14.80;99.90;;;;;;5053032;28;20253;-50
2023/03/19 10:02:35;;;;;;;3.43;3.10;;;15.00;99.90;;;;;;5053072;28;20195;-51
2023/03/19 10:05:22;;;;;;;5.57;3.20;;;15.20;99.90;;;;;;5053178;28;20183;-52
2023/03/19 10:08:22;;;;;;;3.17;2.87;;;15.30;99.90;;;;;;5053296;28;20165;-51
2023/03/19 10:11:03;;;;;;;3.23;2.93;;;15.50;99.90;;;;;;5053075;28;20557;-50
2023/03/19 10:13:42;;;;;;;5.73;2.83;;;15.80;99.90;;;;;;5053373;28;20175;-50
2023/03/19 10:16:17;;;;;;;3.63;2.83;;;15.90;99.90;;;;;;5053103;28;20171;-51
2023/03/19 10:18:51;;;;;;;3.77;2.80;;;15.90;99.90;;;;;;5054251;28;20167;-51
2023/03/19 10:21:25;;;;;;;5.33;3.00;;;15.80;99.90;;;;;;5053238;28;20215;-51
2023/03/19 10:24:00;;;;;;;3.87;2.50;;;15.70;99.90;;;;;;5053381;28;20230;-49
2023/03/19 10:26:34;;;;;;;4.73;2.97;;;15.40;99.90;;;;;;5057357;28;20164;-51
2023/03/19 10:29:29;;;;;;;2.83;2.63;;;15.20;99.90;;;;;;5056979;28;20611;-52
2023/03/19 10:32:15;;;;;;;3.13;2.80;;;15.00;99.90;;;;;;5044020;28;20215;-52
2023/03/19 10:34:47;;;;;;;4.20;2.97;;;14.80;99.90;;;;;;5056930;28;20243;-50
2023/03/19 10:37:26;;;;;;;3.23;2.57;;;14.60;99.90;;;;;;5056720;28;20536;-50
2023/03/19 10:39:56;;;;;;;3.20;2.90;;;14.60;99.90;;;;;;5056445;28;20214;-50
2023/03/19 10:42:36;;;;;;;3.20;2.90;;;14.50;99.90;;;;;;5056369;28;20218;-51
2023/03/19 10:45:07;;;;;;;3.80;3.20;;;14.50;99.90;;;;;;5056980;28;20527;-52
2023/03/19 10:47:38;;;;;;;4.20;3.07;;;14.30;99.90;;;;;;5057518;28;20222;-51
2023/03/19 10:50:05;;;;;;;3.47;2.87;;;14.40;99.90;;;;;;5056320;28;20188;-51
2023/03/19 10:52:34;;;;;;;3.83;3.23;;;14.30;99.90;;;;;;5056565;28;20226;-51
2023/03/19 10:55:14;;;;;;;3.93;2.73;;;14.20;99.90;;;;;;5056507;28;20207;-50
2023/03/19 10:57:42;;;;;;;3.40;2.77;;;14.10;99.90;;;;;;5056162;28;20176;-50
2023/03/19 11:00:34;;;;;;;4.23;3.40;;;14.10;99.90;;;;;;5056250;28;20206;-50
2023/03/19 11:03:03;;;;;;;3.27;2.97;;;14.10;99.90;;;;;;5053678;28;20192;-49
2023/03/19 11:05:32;;;;;;;4.07;3.27;;;14.10;99.90;;;;;;5056053;28;20169;-49
2023/03/19 11:08:05;;;;;;;3.60;3.30;;;14.20;99.90;;;;;;5055944;28;20180;-48
2023/03/19 11:10:34;;;;;;;3.47;3.17;;;14.20;99.90;;;;;;5056226;28;20200;-50
2023/03/19 11:13:19;;;;;;;3.40;3.10;;;14.30;99.90;;;;;;5055854;28;20199;-48
2023/03/19 11:15:47;;;;;;;3.83;3.10;;;14.30;99.90;;;;;;5055848;28;20164;-50
2023/03/19 11:18:18;;;;;;;4.30;3.37;;;14.40;99.90;;;;;;5054920;28;20172;-50
2023/03/19 11:20:53;;;;;;;4.33;3.23;;;14.50;99.90;;;;;;5055924;28;20215;-48
2023/03/19 11:23:19;;;;;;;4.77;3.40;;;14.50;99.90;;;;;;5056032;28;20171;-50
2023/03/19 11:25:52;;;;;;;4.73;3.33;;;14.60;99.90;;;;;;5055595;28;20172;-50
2023/03/19 11:28:25;;;;;;;3.73;3.13;;;14.60;99.90;;;;;;5055693;28;20203;-50
2023/03/19 11:31:15;;;;;;;5.07;3.60;;;14.80;99.90;;;;;;5055797;28;20287;-50
2023/03/19 11:34:08;;;;;;;3.40;3.10;;;14.80;99.90;;;;;;5054357;28;20211;-51
2023/03/19 11:36:45;;;;;;;3.67;3.37;;;15.00;99.90;;;;;;5032205;28;20196;-49
2023/03/19 11:39:34;;;;;;;3.90;3.50;;;15.10;99.90;;;;;;5054148;28;20207;-51
2023/03/19 11:42:28;;;;;;;3.20;2.90;;;15.20;99.90;;;;;;5055702;28;20203;-51
2023/03/19 11:45:12;;;;;;;3.00;2.70;;;15.30;99.90;;;;;;5055797;28;20169;-49
2023/03/19 11:47:40;;;;;;;4.70;3.10;;;15.30;99.90;;;;;;5056591;28;20157;-52
2023/03/19 11:50:26;;;;;;;3.13;2.80;;;15.30;99.90;;;;;;5056758;28;20193;-51
2023/03/19 11:53:39;;;;;;;3.00;2.80;;;15.30;99.90;;;;;;5055478;28;20229;-48
2023/03/19 11:56:33;;;;;;;3.10;2.67;;;15.30;99.90;;;;;;5042665;28;20272;-48
2023/03/19 11:59:27;;;;;;;3.43;2.80;;;15.30;99.90;;;;;;5055036;28;20682;-47
2023/03/19 12:02:08;;;;;;;3.53;2.60;;;15.20;99.90;;;;;;5055013;28;20200;-48
2023/03/19 12:05:11;;;;;;;3.43;2.80;;;15.30;99.90;;;;;;5055199;28;20173;-47
2023/03/19 12:08:01;;;;;;;4.90;2.57;;;15.40;99.90;;;;;;5055223;28;20169;-49
2023/03/19 12:10:57;;;;;;;5.33;2.80;;;15.60;99.90;;;;;;5055023;28;20588;-47
2023/03/19 12:13:30;;;;;;;3.70;2.90;;;15.70;99.90;;;;;;5055066;28;20248;-48
2023/03/19 12:16:33;;;;;;;2.87;2.60;;;15.70;99.90;;;;;;5055198;28;20153;-48
2023/03/19 12:19:11;;;;;;;2.60;2.37;;;15.70;99.90;;;;;;5054626;28;20187;-46
2023/03/19 12:21:55;;;;;;;3.13;2.83;;;15.80;99.90;;;;;;5054579;28;20330;-47
2023/03/19 12:24:24;;;;;;;2.73;2.53;;;15.70;99.90;;;;;;5055083;28;20164;-48
2023/03/19 12:27:01;;;;;;;5.57;2.30;;;15.80;99.90;;;;;;5054772;28;20180;-49
2023/03/19 12:29:39;;;;;;;2.50;2.30;;;15.90;99.90;;;;;;5054914;28;20160;-48
2023/03/19 12:32:29;;;;;;;2.50;2.30;;;15.90;99.90;;;;;;5054708;28;20203;-49
2023/03/19 12:35:00;;;;;;;3.87;2.23;;;16.00;99.90;;;;;;5055235;28;20546;-48
2023/03/19 12:37:37;;;;;;;3.40;3.10;;;16.00;99.90;;;;;;5054465;28;20161;-49
2023/03/19 12:40:26;;;;;;;5.17;3.30;;;16.00;99.90;;;;;;5054357;28;20205;-48
2023/03/19 12:42:58;;;;;;;4.07;2.80;;;15.80;99.90;;;;;;5054421;28;20211;-47
2023/03/19 12:45:32;;;;;;;3.60;2.47;;;15.70;99.90;;;;;;5054438;28;20248;-48
2023/03/19 12:48:13;;;;;;;2.63;2.37;;;15.70;99.90;;;;;;5053427;28;20191;-48
2023/03/19 12:50:42;;;;;;;2.67;2.43;;;15.70;99.90;;;;;;5054008;28;20219;-49
2023/03/19 12:53:32;;;;;;;2.50;2.30;;;15.60;99.90;;;;;;5054069;28;20172;-48
2023/03/19 12:56:03;;;;;;;2.63;2.43;;;15.40;99.90;;;;;;5053850;28;20165;-49
2023/03/19 12:58:52;;;;;;;3.33;2.27;;;15.40;99.90;;;;;;5053985;28;20188;-47
2023/03/19 13:01:23;;;;;;;2.37;2.17;;;15.40;99.90;;;;;;5044364;28;20303;-47
2023/03/19 13:04:00;;;;;;;2.47;2.27;;;15.30;99.90;;;;;;5054159;28;20168;-48
2023/03/19 13:06:32;;;;;;;2.97;1.90;;;15.30;99.90;;;;;;5053835;28;20171;-47
2023/03/19 13:09:22;;;;;;;2.83;1.87;;;15.20;99.90;;;;;;5054013;28;20165;-48